Egg Harbor, New Jersey
Current Conditions -  °F | °C
As of 2:54 PM on Monday 22 Dec 2014 (Local Time) from KACY Reporting Station
Overcast Overcast  
Wind Chill: 39°   Ceiling: 4700
Heat Index: 44°   Visibility: 10mi
Dew Point: 39°   Wind: 9mph
Humidity: 82%   Direction: 70°ENE
Pressure: 30.19"   Gusts: NA
Location:  39.5436°N, 74.5919°W
Report Text: KACY 221954Z 07008KT 10SM OVC047 07/04 A3019 RMK AO2 SLP224 T00670039
Loading
Personal Weather Stations






























Interactive Weather Map New forecast layout! Learn more

10-Day Weather Forecast

Advertisements
Track Severe Weather on mobile